Lady Debora — V2QG7 — position and weather

sailwx.info

Track history (hours):
 
Tides and Currents Weather Stations Pressure Air Temp Water Temp Dewpoint Dewpoint Depression Visibility Wind Speed Wind Dir Waves Ship Positions

Lady Debora

Last reported at 2017-Jul-13 00:08 UTC. Time now 2017-Jul-23 16:38 UTC.
Position N 35°03' E 018°24'.
Warning: this ship's position is 10 days out of date.

Length 107 m; draft 6.2 m.

Type: Cargo ship. MMSI: 304010760.

Date/timePositionNaut miles runAvg speedWind from/ knotsBaromVisibWave heightAir tempDewpointWater temp
2017-Jul-13 00:08N 35°03' E 018°24'210.3
2017-Jul-12 23:57N 35°02' E 018°22'510.6
2017-Jul-12 23:30N 35°01' E 018°16'610.9
2017-Jul-12 22:59N 34°60' E 018°10'511.0
2017-Jul-12 22:30N 34°58' E 018°04'511.0
2017-Jul-12 22:00N 34°57' E 017°57'611.0
2017-Jul-12 21:29N 34°56' E 017°50'3310.9
2017-Jul-12 18:26N 34°47' E 017°11'510.7
2017-Jul-12 17:59N 34°46' E 017°06'610.7
2017-Jul-12 17:26N 34°45' E 016°59'510.7
2017-Jul-12 17:00N 34°43' E 016°53'1010.5
2017-Jul-12 16:01N 34°41' E 016°41'110.6
2017-Jul-12 15:58N 34°40' E 016°41'1210.4
2017-Jul-12 14:49N 34°37' E 016°27'7110.3
2017-Jul-12 07:54N 34°19' E 015°03'410.1
2017-Jul-12 07:31N 34°18' E 014°58'510.2
2017-Jul-12 07:01N 34°17' E 014°52'510.6
2017-Jul-12 06:30N 34°16' E 014°46'510.6
2017-Jul-12 06:00N 34°14' E 014°40'510.9
2017-Jul-12 05:30N 34°13' E 014°34'611.1
2017-Jul-12 05:00N 34°11' E 014°27'611.4
2017-Jul-12 04:30N 34°10' E 014°20'611.4
2017-Jul-12 04:00N 34°09' E 014°14'611.6
2017-Jul-12 03:30N 34°07' E 014°07'611.5
2017-Jul-12 03:00N 34°06' E 014°00'611.3
2017-Jul-12 02:28N 34°04' E 013°53'511.1
2017-Jul-12 02:00N 34°03' E 013°47'610.8
2017-Jul-12 01:28N 34°02' E 013°40'510.6
2017-Jul-12 01:01N 34°00' E 013°35'510.5
2017-Jul-12 00:31N 33°59' E 013°28'510.4
2017-Jul-12 00:00N 33°58' E 013°22'710.4
2017-Jul-11 23:19N 33°56' E 013°14'310.3
2017-Jul-11 23:01N 33°55' E 013°10'610.3
2017-Jul-11 22:23N 33°53' E 013°03'410.3
2017-Jul-11 22:00N 33°52' E 012°58'510.4
2017-Jul-11 21:30N 33°51' E 012°52'510.5
2017-Jul-11 21:00N 33°50' E 012°46'510.6
2017-Jul-11 20:30N 33°49' E 012°40'510.4
2017-Jul-11 20:00N 33°47' E 012°34'510.4
2017-Jul-11 19:30N 33°46' E 012°28'510.4
2017-Jul-11 19:00N 33°44' E 012°22'610.3
2017-Jul-11 18:25N 33°43' E 012°15'510.5
2017-Jul-11 17:58N 33°42' E 012°09'1210.3
2017-Jul-11 16:47N 33°39' E 011°55'310.1
2017-Jul-11 16:30N 33°38' E 011°52'510.2
2017-Jul-11 16:00N 33°36' E 011°46'5 9.9
2017-Jul-11 15:30N 33°35' E 011°40'5 9.9
2017-Jul-11 15:00N 33°34' E 011°34'5 9.9
2017-Jul-11 14:30N 33°33' E 011°29'510.0
2017-Jul-11 14:00N 33°31' E 011°23'5 9.8
2017-Jul-11 13:30N 33°30' E 011°17'5 9.7
2017-Jul-11 13:00N 33°29' E 011°12'4 7.0
2017-Jul-11 12:30N 33°29' E 011°07'0 0.2
2017-Jul-11 11:10N 33°29' E 011°07'0 0.0
2017-Jul-11 10:58N 33°29' E 011°07'0 0.0
2017-Jul-11 10:22N 33°29' E 011°07'0 0.0
2017-Jul-11 09:58N 33°29' E 011°07'0 0.0
2017-Jul-10 15:31N 33°29' E 011°07'0 0.1
2017-Jul-10 15:25N 33°29' E 011°07'0 0.0
2017-Jul-10 14:58N 33°29' E 011°07'0 0.0
2017-Jul-10 14:28N 33°29' E 011°07'0 0.0
2017-Jul-10 13:58N 33°29' E 011°07'0 0.0
2017-Jul-10 13:28N 33°29' E 011°07'0 0.0
2017-Jul-10 12:55N 33°29' E 011°07'0 0.0
2017-Jul-10 10:10N 33°29' E 011°07'0 0.0
2017-Jul-10 09:55N 33°29' E 011°07'0 0.0
2017-Jul-10 09:25N 33°29' E 011°07'0 0.0
2017-Jul-09 16:31N 33°29' E 011°07'0 0.1
2017-Jul-09 16:25N 33°29' E 011°07'0 0.0
2017-Jul-09 15:58N 33°29' E 011°07'0 0.0
2017-Jul-09 14:19N 33°29' E 011°07'0 0.0
2017-Jul-09 13:04N 33°29' E 011°07'0 0.0
2017-Jul-09 12:43N 33°29' E 011°07'0 0.0
2017-Jul-09 11:04N 33°29' E 011°07'0 0.0
2017-Jul-09 10:55N 33°29' E 011°07'0 0.0
2017-Jul-08 17:25N 33°29' E 011°07'0 0.0
2017-Jul-08 16:52N 33°29' E 011°07'0 0.0
2017-Jul-08 16:25N 33°29' E 011°07'  
Track history (hours):
 
Tides and Currents Weather Stations Pressure Air Temp Water Temp Dewpoint Dewpoint Depression Visibility Wind Speed Wind Dir Waves Ship Positions

Lady Debora

Last reported at 2017-Jul-13 00:08 UTC. Time now 2017-Jul-23 16:38 UTC.
Position N 35°03' E 018°24'.
Warning: this ship's position is 10 days out of date.

Length 107 m; draft 6.2 m.

Type: Cargo ship. MMSI: 304010760.

Date/timePositionNaut miles runAvg speedWind from/ knotsBaromVisibWave heightAir tempDewpointWater temp
2017-Jul-13 00:08N 35°03' E 018°24'210.3
2017-Jul-12 23:57N 35°02' E 018°22'510.6
2017-Jul-12 23:30N 35°01' E 018°16'610.9
2017-Jul-12 22:59N 34°60' E 018°10'511.0
2017-Jul-12 22:30N 34°58' E 018°04'511.0
2017-Jul-12 22:00N 34°57' E 017°57'611.0
2017-Jul-12 21:29N 34°56' E 017°50'3310.9
2017-Jul-12 18:26N 34°47' E 017°11'510.7
2017-Jul-12 17:59N 34°46' E 017°06'610.7
2017-Jul-12 17:26N 34°45' E 016°59'510.7
2017-Jul-12 17:00N 34°43' E 016°53'1010.5
2017-Jul-12 16:01N 34°41' E 016°41'110.6
2017-Jul-12 15:58N 34°40' E 016°41'1210.4
2017-Jul-12 14:49N 34°37' E 016°27'7110.3
2017-Jul-12 07:54N 34°19' E 015°03'410.1
2017-Jul-12 07:31N 34°18' E 014°58'510.2
2017-Jul-12 07:01N 34°17' E 014°52'510.6
2017-Jul-12 06:30N 34°16' E 014°46'510.6
2017-Jul-12 06:00N 34°14' E 014°40'510.9
2017-Jul-12 05:30N 34°13' E 014°34'611.1
2017-Jul-12 05:00N 34°11' E 014°27'611.4
2017-Jul-12 04:30N 34°10' E 014°20'611.4
2017-Jul-12 04:00N 34°09' E 014°14'611.6
2017-Jul-12 03:30N 34°07' E 014°07'611.5
2017-Jul-12 03:00N 34°06' E 014°00'611.3
2017-Jul-12 02:28N 34°04' E 013°53'511.1
2017-Jul-12 02:00N 34°03' E 013°47'610.8
2017-Jul-12 01:28N 34°02' E 013°40'510.6
2017-Jul-12 01:01N 34°00' E 013°35'510.5
2017-Jul-12 00:31N 33°59' E 013°28'510.4
2017-Jul-12 00:00N 33°58' E 013°22'710.4
2017-Jul-11 23:19N 33°56' E 013°14'310.3
2017-Jul-11 23:01N 33°55' E 013°10'610.3
2017-Jul-11 22:23N 33°53' E 013°03'410.3
2017-Jul-11 22:00N 33°52' E 012°58'510.4
2017-Jul-11 21:30N 33°51' E 012°52'510.5
2017-Jul-11 21:00N 33°50' E 012°46'510.6
2017-Jul-11 20:30N 33°49' E 012°40'510.4
2017-Jul-11 20:00N 33°47' E 012°34'510.4
2017-Jul-11 19:30N 33°46' E 012°28'510.4
2017-Jul-11 19:00N 33°44' E 012°22'610.3
2017-Jul-11 18:25N 33°43' E 012°15'510.5
2017-Jul-11 17:58N 33°42' E 012°09'1210.3
2017-Jul-11 16:47N 33°39' E 011°55'310.1
2017-Jul-11 16:30N 33°38' E 011°52'510.2
2017-Jul-11 16:00N 33°36' E 011°46'5 9.9
2017-Jul-11 15:30N 33°35' E 011°40'5 9.9
2017-Jul-11 15:00N 33°34' E 011°34'5 9.9
2017-Jul-11 14:30N 33°33' E 011°29'510.0
2017-Jul-11 14:00N 33°31' E 011°23'5 9.8
2017-Jul-11 13:30N 33°30' E 011°17'5 9.7
2017-Jul-11 13:00N 33°29' E 011°12'4 7.0
2017-Jul-11 12:30N 33°29' E 011°07'0 0.2
2017-Jul-11 11:10N 33°29' E 011°07'0 0.0
2017-Jul-11 10:58N 33°29' E 011°07'0 0.0
2017-Jul-11 10:22N 33°29' E 011°07'0 0.0
2017-Jul-11 09:58N 33°29' E 011°07'0 0.0
2017-Jul-10 15:31N 33°29' E 011°07'0 0.1
2017-Jul-10 15:25N 33°29' E 011°07'0 0.0
2017-Jul-10 14:58N 33°29' E 011°07'0 0.0
2017-Jul-10 14:28N 33°29' E 011°07'0 0.0
2017-Jul-10 13:58N 33°29' E 011°07'0 0.0
2017-Jul-10 13:28N 33°29' E 011°07'0 0.0
2017-Jul-10 12:55N 33°29' E 011°07'0 0.0
2017-Jul-10 10:10N 33°29' E 011°07'0 0.0
2017-Jul-10 09:55N 33°29' E 011°07'0 0.0
2017-Jul-10 09:25N 33°29' E 011°07'0 0.0
2017-Jul-09 16:31N 33°29' E 011°07'0 0.1
2017-Jul-09 16:25N 33°29' E 011°07'0 0.0
2017-Jul-09 15:58N 33°29' E 011°07'0 0.0
2017-Jul-09 14:19N 33°29' E 011°07'0 0.0
2017-Jul-09 13:04N 33°29' E 011°07'0 0.0
2017-Jul-09 12:43N 33°29' E 011°07'0 0.0
2017-Jul-09 11:04N 33°29' E 011°07'0 0.0
2017-Jul-09 10:55N 33°29' E 011°07'0 0.0
2017-Jul-08 17:25N 33°29' E 011°07'0 0.0
2017-Jul-08 16:52N 33°29' E 011°07'0 0.0
2017-Jul-08 16:25N 33°29' E 011°07'  

Dump ship's entire track history